• Join FlightAware (Why Join?)
  • Login
  • US Flag 
01:35PM EDT


 

Airport Tracker/Info


-or-


 

Live Flight TrackerFlight Track Log ✈ N983CA ✈ 26-Apr-2013 ✈ KSLC - KDEN

Flight Track Log - Related Links

Times and Time Zones

All times are in EDT time to prevent confusion due to time zone crossing. See the N983CA flight status page for this flight to view local times or setup timezone preferences in your user account.

Time Position Orientation Groundspeed Altitude Reporting Facility
EDT Latitude Longitude Course Direction KTS MPH feet Rate Location/Type
11:08AM 40.7778 -111.9975 102° East 165 190 4,800  Level Salt Lake Center
11:09AM 40.7567 -112.0106 205° Southwest 171 197 5,800 1,860 Climbing Salt Lake Center
11:10AM 40.7628 -112.0850 276° West 230 265 7,700 1,920 Climbing Salt Lake Center
11:11AM 40.9448 -112.2320 349° North  Level FlightAware Approximate
11:11AM 40.8053 -112.1306 321° Northwest 257 296 9,700  Level Salt Lake Center
11:12AM 41.0096 -112.1568 81° East  Level FlightAware Approximate
11:12AM 40.8694 -112.2117 316° Northwest 265 305 13,000  Level Salt Lake Center
11:13AM 40.9980 -112.0108 114° Southeast  Level FlightAware Approximate
11:13AM 40.9403 -112.2369 345° North 263 303 15,600  Level Salt Lake Center
11:14AM 40.9667 -111.8665 102° East  Level FlightAware Approximate
11:14AM 41.0119 -112.2114 15° North 290 334 17,100  Level Salt Lake Center
11:15AM 41.0264 -112.0933 81° East 330 380 18,300 1,440 Climbing Salt Lake Center
11:16AM 40.9961 -111.9758 109° East 343 395 20,100 1,860 Climbing Salt Lake Center
11:17AM 40.9681 -111.8339 105° East 345 397 22,200 1,680 Climbing Salt Lake Center
11:18AM 40.9433 -111.7136 105° East 348 400 23,600 1,200 Climbing Salt Lake Center
11:19AM 40.9225 -111.5867 102° East 358 412 24,800 1,140 Climbing Salt Lake Center
11:20AM 40.9136 -111.4556 95° East 361 415 26,000 1,020 Climbing Salt Lake Center
11:21AM 40.9008 -111.3203 97° East 372 428 27,000 1,140 Climbing Salt Lake Center
11:22AM 40.8808 -111.1581 99° East 374 430 28,400 1,140 Climbing Salt Lake Center
11:23AM 40.8636 -111.0222 99° East 376 433 29,400 780 Climbing Salt Lake Center
11:24AM 40.8478 -110.8858 99° East 377 434 30,100 660 Climbing Salt Lake Center
11:25AM 40.8289 -110.7489 100° East 378 435 30,800 420 Climbing Salt Lake Center
11:26AM 40.8086 -110.5919 100° East 385 443 31,000 60 Climbing Salt Lake Center
11:27AM 40.7947 -110.4542 98° East 392 451 31,000  Level Salt Lake Center
11:28AM 40.7742 -110.2953 100° East 394 453 31,000  Level Salt Lake Center
11:29AM 40.7556 -110.1583 100° East 394 453 31,000  Level Salt Lake Center
11:31AM 40.7383 -109.9989 98° East 394 453 31,000  Level Salt Lake Center
11:32AM 40.7294 -109.8611 95° East 394 453 31,000  Level Salt Lake Center
11:33AM 40.7169 -109.6964 96° East 402 463 31,000  Level Salt Lake Center
11:34AM 40.7075 -109.5553 95° East 405 466 31,000  Level Salt Lake Center
11:35AM 40.6967 -109.4158 96° East 401 461 31,000  Level Salt Lake Center
11:36AM 40.6839 -109.2533 96° East 398 458 31,000  Level Salt Lake Center
11:37AM 40.6728 -109.0975 95° East 398 458 31,000  Level Salt Lake Center
11:38AM 40.6614 -108.9614 96° East 395 455 31,000  Level Salt Lake Center
11:38AM 40.6539 -108.8603 96° East 392 451 31,000  Level Denver Center
11:39AM 40.6436 -108.7233 96° East 392 451 31,000  Level Denver Center
11:40AM 40.6300 -108.5633 96° East 392 451 31,000  Level Denver Center
11:41AM 40.6250 -108.5094 97° East 392 451 31,000  Level Salt Lake Center
11:42AM 40.6186 -108.4297 96° East 386 444 31,000  Level Denver Center
11:42AM 40.6139 -108.3739 96° East 390 449 31,000  Level Salt Lake Center
11:43AM 40.6006 -108.2161 96° East 390 449 31,000  Level Salt Lake Center
11:44AM 40.5892 -108.0817 96° East 389 448 31,000  Level Salt Lake Center
11:45AM 40.5808 -107.9769 96° East 388 447 31,000  Level Denver Center
11:46AM 40.5703 -107.8425 96° East 387 445 31,000  Level Denver Center
11:47AM 40.5586 -107.6847 96° East 387 445 31,000  Level Denver Center
11:48AM 40.5464 -107.5497 97° East 388 447 31,000  Level Denver Center
11:49AM 40.5361 -107.4136 96° East 389 448 31,000  Level Denver Center
11:50AM 40.5233 -107.2558 96° East 390 449 31,000  Level Denver Center
11:51AM 40.5119 -107.1247 96° East 393 452 31,000  Level Denver Center
11:52AM 40.4992 -106.9797 97° East 397 457 31,000  Level Denver Center
11:53AM 40.4844 -106.8039 96° East 401 461 31,000  Level Denver Center
11:54AM 40.4714 -106.6575 97° East 401 461 31,000  Level Denver Center
11:55AM 40.4583 -106.5092 97° East 406 467 31,000  Level Denver Center
11:56AM 40.4431 -106.3489 97° East 407 468 31,000  Level Denver Center
11:57AM 40.4306 -106.2072 97° East 409 471 31,000 -240 Level Denver Center
11:58AM 40.4150 -106.0414 97° East 404 465 30,600 -1,500 Descending Denver Center
11:59AM 40.4019 -105.8942 97° East 403 464 28,000 -2,520 Descending Denver Center
12:00PM 40.3861 -105.7511 98° East 395 455 25,400 -2,400 Descending Denver Center
12:01PM 40.3736 -105.6094 97° East 388 447 23,100 -2,100 Descending Denver Center
12:02PM 40.3594 -105.4797 98° East 361 415 21,100 -1,920 Descending Denver Center
12:03PM 40.3106 -105.3644 119° Southeast 339 390 19,200 -1,920 Descending Denver Center
12:04PM 40.2456 -105.2639 130° Southeast 334 384 17,200 -1,920 Descending Denver Center
12:05PM 40.1864 -105.1703 130° Southeast 331 381 15,300 -1,140 Descending Denver Center
12:07PM 40.0683 -104.9881 130° Southeast 313 360 13,700 -720 Descending Denver Center
12:08PM 40.0117 -104.9008 130° Southeast 315 362 13,100 -780 Descending Denver Center
12:09PM 39.9483 -104.8139 134° Southeast 315 362 12,100 -1,020 Descending Denver Center
12:10PM 39.8706 -104.8078 177° South 285 328 11,100 -540 Descending Denver Center
12:12PM 39.7914 -104.8100 181° South 263 303 11,000 -540 Descending Denver Center
12:13PM 39.7242 -104.7917 168° South 261 300 10,000 -1,020 Descending Denver Center
12:14PM 39.7033 -104.7189 110° East 208 239 9,000 -1,200 Descending Denver Center
12:15PM 39.7578 -104.6906 22° Northeast 209 241 7,600 -1,380 Descending Denver Center